sensor_id;sensor_type;location;lat;lon;timestamp;P1;durP1;ratioP1;P2;durP2;ratioP2
28774;SDS011;15926;51.348;6.596;2023-02-28T00:02:25;5.97;;;3.50;;
28774;SDS011;15926;51.348;6.596;2023-02-28T00:04:51;7.65;;;3.92;;
28774;SDS011;15926;51.348;6.596;2023-02-28T00:07:26;9.60;;;3.60;;
28774;SDS011;15926;51.348;6.596;2023-02-28T00:09:53;7.68;;;4.10;;
28774;SDS011;15926;51.348;6.596;2023-02-28T00:12:19;6.03;;;4.03;;
28774;SDS011;15926;51.348;6.596;2023-02-28T00:14:45;11.88;;;3.88;;
28774;SDS011;15926;51.348;6.596;2023-02-28T00:17:11;6.70;;;4.30;;
28774;SDS011;15926;51.348;6.596;2023-02-28T00:19:37;6.38;;;4.35;;
28774;SDS011;15926;51.348;6.596;2023-02-28T00:22:03;8.57;;;4.50;;
28774;SDS011;15926;51.348;6.596;2023-02-28T00:24:29;13.20;;;4.65;;
28774;SDS011;15926;51.348;6.596;2023-02-28T00:26:55;8.38;;;4.22;;
28774;SDS011;15926;51.348;6.596;2023-02-28T00:29:21;5.32;;;3.72;;
28774;SDS011;15926;51.348;6.596;2023-02-28T00:31:47;6.53;;;3.58;;
28774;SDS011;15926;51.348;6.596;2023-02-28T00:34:13;9.82;;;4.35;;
28774;SDS011;15926;51.348;6.596;2023-02-28T00:36:39;8.73;;;3.70;;
28774;SDS011;15926;51.348;6.596;2023-02-28T00:39:08;11.00;;;3.53;;
28774;SDS011;15926;51.348;6.596;2023-02-28T00:41:34;5.93;;;3.20;;
28774;SDS011;15926;51.348;6.596;2023-02-28T00:44:00;6.75;;;3.95;;
28774;SDS011;15926;51.348;6.596;2023-02-28T00:46:26;8.13;;;3.42;;
28774;SDS011;15926;51.348;6.596;2023-02-28T00:48:52;5.55;;;3.45;;
28774;SDS011;15926;51.348;6.596;2023-02-28T00:51:18;7.75;;;3.38;;
28774;SDS011;15926;51.348;6.596;2023-02-28T00:53:44;3.97;;;2.70;;
28774;SDS011;15926;51.348;6.596;2023-02-28T00:56:10;6.15;;;3.00;;
28774;SDS011;15926;51.348;6.596;2023-02-28T00:58:36;4.35;;;3.38;;
28774;SDS011;15926;51.348;6.596;2023-02-28T01:01:02;7.28;;;3.88;;
28774;SDS011;15926;51.348;6.596;2023-02-28T01:03:28;5.45;;;3.50;;
28774;SDS011;15926;51.348;6.596;2023-02-28T01:05:54;4.85;;;3.60;;
28774;SDS011;15926;51.348;6.596;2023-02-28T01:08:20;7.80;;;3.58;;
28774;SDS011;15926;51.348;6.596;2023-02-28T01:10:47;6.03;;;3.45;;
28774;SDS011;15926;51.348;6.596;2023-02-28T01:13:13;7.15;;;3.50;;
28774;SDS011;15926;51.348;6.596;2023-02-28T01:15:48;5.00;;;3.65;;
28774;SDS011;15926;51.348;6.596;2023-02-28T01:18:14;5.75;;;3.53;;
28774;SDS011;15926;51.348;6.596;2023-02-28T01:20:40;6.38;;;3.22;;
28774;SDS011;15926;51.348;6.596;2023-02-28T01:23:07;4.50;;;3.45;;
28774;SDS011;15926;51.348;6.596;2023-02-28T01:25:36;5.60;;;3.50;;
28774;SDS011;15926;51.348;6.596;2023-02-28T01:28:02;7.90;;;3.78;;
28774;SDS011;15926;51.348;6.596;2023-02-28T01:30:28;10.13;;;4.18;;
28774;SDS011;15926;51.348;6.596;2023-02-28T01:32:54;6.05;;;4.32;;
28774;SDS011;15926;51.348;6.596;2023-02-28T01:35:20;6.88;;;4.05;;
28774;SDS011;15926;51.348;6.596;2023-02-28T01:37:46;6.43;;;4.20;;
28774;SDS011;15926;51.348;6.596;2023-02-28T01:40:12;5.15;;;3.55;;
28774;SDS011;15926;51.348;6.596;2023-02-28T01:42:41;8.63;;;4.20;;
28774;SDS011;15926;51.348;6.596;2023-02-28T01:45:30;8.27;;;3.90;;
28774;SDS011;15926;51.348;6.596;2023-02-28T01:48:00;5.90;;;4.22;;
28774;SDS011;15926;51.348;6.596;2023-02-28T01:50:28;5.07;;;3.90;;
28774;SDS011;15926;51.348;6.596;2023-02-28T01:52:56;6.88;;;4.65;;
28774;SDS011;15926;51.348;6.596;2023-02-28T01:55:24;10.13;;;4.45;;
28774;SDS011;15926;51.348;6.596;2023-02-28T01:57:54;9.23;;;4.25;;
28774;SDS011;15926;51.348;6.596;2023-02-28T02:00:22;6.40;;;4.00;;
28774;SDS011;15926;51.348;6.596;2023-02-28T02:02:50;8.77;;;4.25;;
28774;SDS011;15926;51.348;6.596;2023-02-28T02:05:18;8.45;;;4.63;;
28774;SDS011;15926;51.348;6.596;2023-02-28T02:07:45;7.05;;;4.28;;
28774;SDS011;15926;51.348;6.596;2023-02-28T02:10:19;4.65;;;4.20;;
28774;SDS011;15926;51.348;6.596;2023-02-28T02:15:32;8.93;;;4.63;;
28774;SDS011;15926;51.348;6.596;2023-02-28T02:18:02;6.63;;;4.53;;
28774;SDS011;15926;51.348;6.596;2023-02-28T02:35:54;4.50;;;3.78;;
28774;SDS011;15926;51.348;6.596;2023-02-28T02:38:35;8.52;;;4.18;;
28774;SDS011;15926;51.348;6.596;2023-02-28T02:43:29;11.10;;;3.65;;
28774;SDS011;15926;51.348;6.596;2023-02-28T02:46:06;5.82;;;3.83;;
28774;SDS011;15926;51.348;6.596;2023-02-28T02:48:34;6.72;;;3.53;;
28774;SDS011;15926;51.348;6.596;2023-02-28T02:51:03;6.63;;;3.78;;
28774;SDS011;15926;51.348;6.596;2023-02-28T02:53:37;5.88;;;3.47;;
28774;SDS011;15926;51.348;6.596;2023-02-28T02:56:06;5.72;;;3.22;;
28774;SDS011;15926;51.348;6.596;2023-02-28T02:58:34;6.72;;;3.80;;
28774;SDS011;15926;51.348;6.596;2023-02-28T03:01:06;5.00;;;3.88;;
28774;SDS011;15926;51.348;6.596;2023-02-28T03:03:34;5.85;;;3.65;;
28774;SDS011;15926;51.348;6.596;2023-02-28T03:06:01;6.50;;;3.97;;
28774;SDS011;15926;51.348;6.596;2023-02-28T03:08:28;8.32;;;4.10;;
28774;SDS011;15926;51.348;6.596;2023-02-28T03:11:02;8.82;;;4.25;;
28774;SDS011;15926;51.348;6.596;2023-02-28T03:16:03;5.72;;;3.88;;
28774;SDS011;15926;51.348;6.596;2023-02-28T03:21:20;7.15;;;4.05;;
28774;SDS011;15926;51.348;6.596;2023-02-28T03:24:32;7.25;;;4.47;;
28774;SDS011;15926;51.348;6.596;2023-02-28T03:26:45;7.80;;;3.95;;
28774;SDS011;15926;51.348;6.596;2023-02-28T03:31:50;7.88;;;3.67;;
28774;SDS011;15926;51.348;6.596;2023-02-28T03:34:26;6.03;;;4.00;;
28774;SDS011;15926;51.348;6.596;2023-02-28T03:36:59;4.97;;;3.33;;
28774;SDS011;15926;51.348;6.596;2023-02-28T03:39:28;8.07;;;3.70;;
28774;SDS011;15926;51.348;6.596;2023-02-28T03:42:10;5.63;;;3.30;;
28774;SDS011;15926;51.348;6.596;2023-02-28T03:44:38;5.38;;;3.65;;
28774;SDS011;15926;51.348;6.596;2023-02-28T03:47:09;4.88;;;3.28;;
28774;SDS011;15926;51.348;6.596;2023-02-28T03:49:40;8.85;;;3.53;;
28774;SDS011;15926;51.348;6.596;2023-02-28T03:52:08;6.05;;;3.65;;
28774;SDS011;15926;51.348;6.596;2023-02-28T03:54:36;4.35;;;3.05;;
28774;SDS011;15926;51.348;6.596;2023-02-28T03:57:11;6.47;;;3.45;;
28774;SDS011;15926;51.348;6.596;2023-02-28T03:59:45;7.47;;;3.45;;
28774;SDS011;15926;51.348;6.596;2023-02-28T04:02:12;4.63;;;3.17;;
28774;SDS011;15926;51.348;6.596;2023-02-28T04:04:39;6.20;;;3.17;;
28774;SDS011;15926;51.348;6.596;2023-02-28T04:07:10;5.78;;;3.28;;
28774;SDS011;15926;51.348;6.596;2023-02-28T04:09:37;6.93;;;3.15;;
28774;SDS011;15926;51.348;6.596;2023-02-28T04:12:03;6.22;;;3.28;;
28774;SDS011;15926;51.348;6.596;2023-02-28T04:14:29;8.02;;;3.15;;
28774;SDS011;15926;51.348;6.596;2023-02-28T04:16:55;4.15;;;3.45;;
28774;SDS011;15926;51.348;6.596;2023-02-28T04:19:21;7.32;;;3.72;;
28774;SDS011;15926;51.348;6.596;2023-02-28T04:21:48;5.78;;;2.80;;
28774;SDS011;15926;51.348;6.596;2023-02-28T04:24:16;10.75;;;3.17;;
28774;SDS011;15926;51.348;6.596;2023-02-28T04:26:43;4.95;;;3.25;;
28774;SDS011;15926;51.348;6.596;2023-02-28T04:29:09;4.95;;;3.47;;
28774;SDS011;15926;51.348;6.596;2023-02-28T04:31:36;11.40;;;3.70;;
28774;SDS011;15926;51.348;6.596;2023-02-28T04:34:02;5.90;;;3.17;;
28774;SDS011;15926;51.348;6.596;2023-02-28T04:36:28;8.10;;;3.35;;
28774;SDS011;15926;51.348;6.596;2023-02-28T04:38:55;6.55;;;3.67;;
28774;SDS011;15926;51.348;6.596;2023-02-28T04:41:21;5.38;;;3.55;;
28774;SDS011;15926;51.348;6.596;2023-02-28T04:43:47;6.57;;;3.88;;
28774;SDS011;15926;51.348;6.596;2023-02-28T04:46:13;6.95;;;3.80;;
28774;SDS011;15926;51.348;6.596;2023-02-28T04:48:40;7.78;;;3.85;;
28774;SDS011;15926;51.348;6.596;2023-02-28T04:51:07;7.55;;;3.70;;
28774;SDS011;15926;51.348;6.596;2023-02-28T04:53:34;6.55;;;3.70;;
28774;SDS011;15926;51.348;6.596;2023-02-28T04:56:00;5.30;;;3.90;;
28774;SDS011;15926;51.348;6.596;2023-02-28T04:58:26;4.72;;;3.75;;
28774;SDS011;15926;51.348;6.596;2023-02-28T05:00:53;7.63;;;3.90;;
28774;SDS011;15926;51.348;6.596;2023-02-28T05:03:19;7.20;;;4.20;;
28774;SDS011;15926;51.348;6.596;2023-02-28T05:05:48;5.50;;;4.18;;
28774;SDS011;15926;51.348;6.596;2023-02-28T05:08:14;6.60;;;3.67;;
28774;SDS011;15926;51.348;6.596;2023-02-28T05:10:40;10.40;;;3.70;;
28774;SDS011;15926;51.348;6.596;2023-02-28T05:13:06;8.10;;;4.28;;
28774;SDS011;15926;51.348;6.596;2023-02-28T05:15:32;10.23;;;3.88;;
28774;SDS011;15926;51.348;6.596;2023-02-28T05:17:58;8.02;;;3.90;;
28774;SDS011;15926;51.348;6.596;2023-02-28T05:20:25;7.05;;;3.55;;
28774;SDS011;15926;51.348;6.596;2023-02-28T05:22:51;9.27;;;4.05;;
28774;SDS011;15926;51.348;6.596;2023-02-28T05:25:18;11.18;;;3.60;;
28774;SDS011;15926;51.348;6.596;2023-02-28T05:27:44;8.07;;;3.42;;
28774;SDS011;15926;51.348;6.596;2023-02-28T05:30:10;7.80;;;3.42;;
28774;SDS011;15926;51.348;6.596;2023-02-28T05:32:37;3.45;;;2.90;;
28774;SDS011;15926;51.348;6.596;2023-02-28T05:35:03;8.13;;;3.42;;
28774;SDS011;15926;51.348;6.596;2023-02-28T05:37:29;6.30;;;3.38;;
28774;SDS011;15926;51.348;6.596;2023-02-28T05:39:56;8.02;;;3.47;;
28774;SDS011;15926;51.348;6.596;2023-02-28T05:42:22;7.70;;;3.58;;
28774;SDS011;15926;51.348;6.596;2023-02-28T05:44:48;5.32;;;3.83;;
28774;SDS011;15926;51.348;6.596;2023-02-28T05:47:14;3.70;;;2.95;;
28774;SDS011;15926;51.348;6.596;2023-02-28T05:49:41;9.25;;;3.60;;
28774;SDS011;15926;51.348;6.596;2023-02-28T05:52:12;7.47;;;3.72;;
28774;SDS011;15926;51.348;6.596;2023-02-28T05:54:38;7.78;;;3.15;;
28774;SDS011;15926;51.348;6.596;2023-02-28T05:57:05;7.25;;;3.53;;
28774;SDS011;15926;51.348;6.596;2023-02-28T05:59:34;5.28;;;2.20;;
28774;SDS011;15926;51.348;6.596;2023-02-28T06:02:04;3.05;;;2.53;;
28774;SDS011;15926;51.348;6.596;2023-02-28T06:04:42;8.00;;;3.15;;
28774;SDS011;15926;51.348;6.596;2023-02-28T06:07:08;6.38;;;3.28;;
28774;SDS011;15926;51.348;6.596;2023-02-28T06:09:35;6.82;;;3.17;;
28774;SDS011;15926;51.348;6.596;2023-02-28T06:12:02;8.30;;;3.22;;
28774;SDS011;15926;51.348;6.596;2023-02-28T06:14:30;7.78;;;3.42;;
28774;SDS011;15926;51.348;6.596;2023-02-28T06:16:56;5.45;;;3.17;;
28774;SDS011;15926;51.348;6.596;2023-02-28T06:19:23;4.60;;;3.33;;
28774;SDS011;15926;51.348;6.596;2023-02-28T06:21:50;6.78;;;3.35;;
28774;SDS011;15926;51.348;6.596;2023-02-28T06:24:18;6.07;;;3.35;;
28774;SDS011;15926;51.348;6.596;2023-02-28T06:26:44;6.43;;;3.30;;
28774;SDS011;15926;51.348;6.596;2023-02-28T06:29:14;5.05;;;2.65;;
28774;SDS011;15926;51.348;6.596;2023-02-28T06:31:45;7.43;;;2.63;;
28774;SDS011;15926;51.348;6.596;2023-02-28T06:34:14;3.13;;;2.47;;
28774;SDS011;15926;51.348;6.596;2023-02-28T06:36:43;5.95;;;2.85;;
28774;SDS011;15926;51.348;6.596;2023-02-28T06:39:09;6.75;;;2.38;;
28774;SDS011;15926;51.348;6.596;2023-02-28T06:41:35;5.30;;;2.00;;
28774;SDS011;15926;51.348;6.596;2023-02-28T06:44:12;3.90;;;2.10;;
28774;SDS011;15926;51.348;6.596;2023-02-28T06:46:42;2.83;;;2.28;;
28774;SDS011;15926;51.348;6.596;2023-02-28T06:49:08;5.20;;;2.58;;
28774;SDS011;15926;51.348;6.596;2023-02-28T06:51:35;3.90;;;2.45;;
28774;SDS011;15926;51.348;6.596;2023-02-28T06:54:02;4.60;;;2.38;;
28774;SDS011;15926;51.348;6.596;2023-02-28T06:56:28;4.15;;;2.00;;
28774;SDS011;15926;51.348;6.596;2023-02-28T07:01:25;3.25;;;2.13;;
28774;SDS011;15926;51.348;6.596;2023-02-28T07:03:55;4.73;;;2.73;;
28774;SDS011;15926;51.348;6.596;2023-02-28T07:06:26;6.53;;;2.85;;
28774;SDS011;15926;51.348;6.596;2023-02-28T07:08:53;6.85;;;2.42;;
28774;SDS011;15926;51.348;6.596;2023-02-28T07:11:19;4.88;;;2.65;;
28774;SDS011;15926;51.348;6.596;2023-02-28T07:13:48;4.53;;;2.55;;
28774;SDS011;15926;51.348;6.596;2023-02-28T07:16:21;6.15;;;3.05;;
28774;SDS011;15926;51.348;6.596;2023-02-28T07:18:47;5.78;;;2.78;;
28774;SDS011;15926;51.348;6.596;2023-02-28T07:21:14;3.83;;;2.50;;
28774;SDS011;15926;51.348;6.596;2023-02-28T07:23:40;3.47;;;2.28;;
28774;SDS011;15926;51.348;6.596;2023-02-28T07:26:07;3.47;;;2.13;;
28774;SDS011;15926;51.348;6.596;2023-02-28T07:28:36;5.80;;;2.40;;
28774;SDS011;15926;51.348;6.596;2023-02-28T07:31:06;2.65;;;1.98;;
28774;SDS011;15926;51.348;6.596;2023-02-28T07:33:32;4.22;;;2.58;;
28774;SDS011;15926;51.348;6.596;2023-02-28T07:36:03;2.40;;;1.83;;
28774;SDS011;15926;51.348;6.596;2023-02-28T07:38:29;6.30;;;2.70;;
28774;SDS011;15926;51.348;6.596;2023-02-28T07:40:55;7.13;;;2.08;;
28774;SDS011;15926;51.348;6.596;2023-02-28T07:43:21;8.60;;;2.97;;
28774;SDS011;15926;51.348;6.596;2023-02-28T07:45:48;6.13;;;2.88;;
28774;SDS011;15926;51.348;6.596;2023-02-28T07:48:14;2.15;;;1.95;;
28774;SDS011;15926;51.348;6.596;2023-02-28T07:50:40;4.18;;;2.20;;
28774;SDS011;15926;51.348;6.596;2023-02-28T07:53:06;5.10;;;2.30;;
28774;SDS011;15926;51.348;6.596;2023-02-28T07:55:32;5.60;;;2.65;;
28774;SDS011;15926;51.348;6.596;2023-02-28T07:57:58;3.55;;;2.22;;
28774;SDS011;15926;51.348;6.596;2023-02-28T08:00:24;5.13;;;2.53;;
28774;SDS011;15926;51.348;6.596;2023-02-28T08:02:50;1.98;;;1.50;;
28774;SDS011;15926;51.348;6.596;2023-02-28T08:05:17;5.22;;;2.10;;
28774;SDS011;15926;51.348;6.596;2023-02-28T08:07:43;3.22;;;2.00;;
28774;SDS011;15926;51.348;6.596;2023-02-28T08:10:09;3.67;;;1.83;;
28774;SDS011;15926;51.348;6.596;2023-02-28T08:12:35;3.72;;;2.03;;
28774;SDS011;15926;51.348;6.596;2023-02-28T08:15:01;5.38;;;2.00;;
28774;SDS011;15926;51.348;6.596;2023-02-28T08:17:28;2.95;;;1.48;;
28774;SDS011;15926;51.348;6.596;2023-02-28T08:19:54;4.82;;;1.63;;
28774;SDS011;15926;51.348;6.596;2023-02-28T08:22:20;1.92;;;1.33;;
28774;SDS011;15926;51.348;6.596;2023-02-28T08:24:46;5.82;;;2.05;;
28774;SDS011;15926;51.348;6.596;2023-02-28T08:27:12;4.88;;;2.20;;
28774;SDS011;15926;51.348;6.596;2023-02-28T08:29:38;4.22;;;1.98;;
28774;SDS011;15926;51.348;6.596;2023-02-28T08:32:05;5.47;;;1.92;;
28774;SDS011;15926;51.348;6.596;2023-02-28T08:34:31;4.45;;;1.90;;
28774;SDS011;15926;51.348;6.596;2023-02-28T08:36:57;5.32;;;2.15;;
28774;SDS011;15926;51.348;6.596;2023-02-28T08:39:24;3.75;;;1.63;;
28774;SDS011;15926;51.348;6.596;2023-02-28T08:41:50;4.00;;;1.85;;
28774;SDS011;15926;51.348;6.596;2023-02-28T08:44:16;3.28;;;2.03;;
28774;SDS011;15926;51.348;6.596;2023-02-28T08:46:42;4.30;;;2.10;;
28774;SDS011;15926;51.348;6.596;2023-02-28T08:49:09;5.18;;;2.40;;
28774;SDS011;15926;51.348;6.596;2023-02-28T08:51:36;3.33;;;1.95;;
28774;SDS011;15926;51.348;6.596;2023-02-28T08:54:02;4.13;;;2.20;;
28774;SDS011;15926;51.348;6.596;2023-02-28T08:56:28;1.92;;;1.75;;
28774;SDS011;15926;51.348;6.596;2023-02-28T08:58:55;4.75;;;1.67;;
28774;SDS011;15926;51.348;6.596;2023-02-28T09:01:26;2.85;;;1.73;;
28774;SDS011;15926;51.348;6.596;2023-02-28T09:03:52;3.55;;;1.65;;
28774;SDS011;15926;51.348;6.596;2023-02-28T09:06:19;3.10;;;2.03;;
28774;SDS011;15926;51.348;6.596;2023-02-28T09:08:45;6.13;;;2.30;;
28774;SDS011;15926;51.348;6.596;2023-02-28T09:11:11;2.88;;;2.00;;
28774;SDS011;15926;51.348;6.596;2023-02-28T09:13:38;1.45;;;1.35;;
28774;SDS011;15926;51.348;6.596;2023-02-28T09:16:05;2.30;;;1.40;;
28774;SDS011;15926;51.348;6.596;2023-02-28T09:18:33;1.73;;;1.63;;
28774;SDS011;15926;51.348;6.596;2023-02-28T09:21:02;2.28;;;1.20;;
28774;SDS011;15926;51.348;6.596;2023-02-28T09:23:28;1.15;;;0.90;;
28774;SDS011;15926;51.348;6.596;2023-02-28T09:25:54;1.00;;;0.90;;
28774;SDS011;15926;51.348;6.596;2023-02-28T09:28:21;2.22;;;0.98;;
28774;SDS011;15926;51.348;6.596;2023-02-28T09:30:48;2.30;;;1.25;;
28774;SDS011;15926;51.348;6.596;2023-02-28T09:33:15;1.40;;;0.98;;
28774;SDS011;15926;51.348;6.596;2023-02-28T09:35:41;1.30;;;0.88;;
28774;SDS011;15926;51.348;6.596;2023-02-28T09:38:08;1.08;;;1.08;;
28774;SDS011;15926;51.348;6.596;2023-02-28T09:40:53;1.35;;;0.82;;
28774;SDS011;15926;51.348;6.596;2023-02-28T09:43:20;1.25;;;0.93;;
28774;SDS011;15926;51.348;6.596;2023-02-28T09:45:51;1.88;;;1.20;;
28774;SDS011;15926;51.348;6.596;2023-02-28T09:48:24;1.52;;;1.05;;
28774;SDS011;15926;51.348;6.596;2023-02-28T09:50:52;1.05;;;1.00;;
28774;SDS011;15926;51.348;6.596;2023-02-28T09:53:22;3.67;;;1.17;;
28774;SDS011;15926;51.348;6.596;2023-02-28T09:55:53;1.13;;;0.90;;
28774;SDS011;15926;51.348;6.596;2023-02-28T10:01:43;1.15;;;1.05;;
28774;SDS011;15926;51.348;6.596;2023-02-28T10:04:04;1.67;;;0.90;;
28774;SDS011;15926;51.348;6.596;2023-02-28T10:06:39;1.33;;;1.13;;
28774;SDS011;15926;51.348;6.596;2023-02-28T10:09:11;1.05;;;0.95;;
28774;SDS011;15926;51.348;6.596;2023-02-28T10:11:39;2.08;;;1.15;;
28774;SDS011;15926;51.348;6.596;2023-02-28T10:19:05;1.63;;;1.27;;
28774;SDS011;15926;51.348;6.596;2023-02-28T10:21:52;1.35;;;1.25;;
28774;SDS011;15926;51.348;6.596;2023-02-28T10:24:43;1.38;;;1.02;;
28774;SDS011;15926;51.348;6.596;2023-02-28T10:27:20;1.27;;;1.15;;
28774;SDS011;15926;51.348;6.596;2023-02-28T10:29:50;0.88;;;0.88;;
28774;SDS011;15926;51.348;6.596;2023-02-28T10:32:17;3.38;;;1.08;;
28774;SDS011;15926;51.348;6.596;2023-02-28T10:34:43;1.65;;;1.23;;
28774;SDS011;15926;51.348;6.596;2023-02-28T10:37:10;1.80;;;1.20;;
28774;SDS011;15926;51.348;6.596;2023-02-28T10:39:41;1.83;;;1.10;;
28774;SDS011;15926;51.348;6.596;2023-02-28T10:45:04;3.15;;;1.00;;
28774;SDS011;15926;51.348;6.596;2023-02-28T10:47:31;1.98;;;1.00;;
28774;SDS011;15926;51.348;6.596;2023-02-28T10:49:58;1.10;;;0.70;;
28774;SDS011;15926;51.348;6.596;2023-02-28T10:52:39;1.27;;;1.00;;
28774;SDS011;15926;51.348;6.596;2023-02-28T10:55:18;0.80;;;0.80;;
28774;SDS011;15926;51.348;6.596;2023-02-28T10:57:45;2.80;;;1.25;;
28774;SDS011;15926;51.348;6.596;2023-02-28T11:00:22;0.80;;;0.80;;
28774;SDS011;15926;51.348;6.596;2023-02-28T11:02:50;1.15;;;0.90;;
28774;SDS011;15926;51.348;6.596;2023-02-28T11:05:27;1.85;;;0.90;;
28774;SDS011;15926;51.348;6.596;2023-02-28T11:07:55;1.38;;;0.77;;
28774;SDS011;15926;51.348;6.596;2023-02-28T11:10:22;1.50;;;1.10;;
28774;SDS011;15926;51.348;6.596;2023-02-28T11:12:50;1.40;;;1.00;;
28774;SDS011;15926;51.348;6.596;2023-02-28T11:15:24;2.17;;;1.23;;
28774;SDS011;15926;51.348;6.596;2023-02-28T11:18:00;1.20;;;1.08;;
28774;SDS011;15926;51.348;6.596;2023-02-28T11:20:28;1.00;;;0.95;;
28774;SDS011;15926;51.348;6.596;2023-02-28T11:22:55;1.48;;;1.00;;
28774;SDS011;15926;51.348;6.596;2023-02-28T11:25:25;1.92;;;0.88;;
28774;SDS011;15926;51.348;6.596;2023-02-28T11:32:53;1.42;;;1.30;;
28774;SDS011;15926;51.348;6.596;2023-02-28T11:35:27;1.55;;;0.98;;
28774;SDS011;15926;51.348;6.596;2023-02-28T11:37:54;1.08;;;0.98;;
28774;SDS011;15926;51.348;6.596;2023-02-28T11:40:29;0.88;;;0.75;;
28774;SDS011;15926;51.348;6.596;2023-02-28T11:48:20;1.40;;;1.00;;
28774;SDS011;15926;51.348;6.596;2023-02-28T11:53:40;3.15;;;0.90;;
28774;SDS011;15926;51.348;6.596;2023-02-28T12:11:52;1.85;;;1.23;;
28774;SDS011;15926;51.348;6.596;2023-02-28T12:27:50;2.05;;;1.45;;
28774;SDS011;15926;51.348;6.596;2023-02-28T12:30:22;1.88;;;1.08;;
28774;SDS011;15926;51.348;6.596;2023-02-28T12:32:51;1.05;;;1.05;;
28774;SDS011;15926;51.348;6.596;2023-02-28T12:37:45;3.45;;;1.10;;
28774;SDS011;15926;51.348;6.596;2023-02-28T12:40:17;1.45;;;1.00;;
28774;SDS011;15926;51.348;6.596;2023-02-28T12:42:49;0.90;;;0.90;;
28774;SDS011;15926;51.348;6.596;2023-02-28T12:45:19;1.15;;;1.13;;
28774;SDS011;15926;51.348;6.596;2023-02-28T12:47:47;2.08;;;0.90;;
28774;SDS011;15926;51.348;6.596;2023-02-28T12:50:14;1.00;;;1.00;;
28774;SDS011;15926;51.348;6.596;2023-02-28T12:52:59;1.27;;;1.00;;
28774;SDS011;15926;51.348;6.596;2023-02-28T12:58:05;1.00;;;0.90;;
28774;SDS011;15926;51.348;6.596;2023-02-28T13:00:34;1.85;;;1.33;;
28774;SDS011;15926;51.348;6.596;2023-02-28T13:11:05;2.67;;;1.02;;
28774;SDS011;15926;51.348;6.596;2023-02-28T13:13:32;1.75;;;1.00;;
28774;SDS011;15926;51.348;6.596;2023-02-28T13:15:59;0.98;;;0.98;;
28774;SDS011;15926;51.348;6.596;2023-02-28T13:18:38;3.38;;;1.95;;
28774;SDS011;15926;51.348;6.596;2023-02-28T13:21:08;3.03;;;1.50;;
28774;SDS011;15926;51.348;6.596;2023-02-28T13:23:57;1.58;;;1.40;;
28774;SDS011;15926;51.348;6.596;2023-02-28T13:31:22;1.20;;;1.10;;
28774;SDS011;15926;51.348;6.596;2023-02-28T13:38:47;1.33;;;1.20;;
28774;SDS011;15926;51.348;6.596;2023-02-28T13:46:28;1.48;;;1.00;;
28774;SDS011;15926;51.348;6.596;2023-02-28T13:48:54;1.55;;;1.17;;
28774;SDS011;15926;51.348;6.596;2023-02-28T13:54:27;1.27;;;1.15;;
28774;SDS011;15926;51.348;6.596;2023-02-28T14:00:13;3.70;;;1.25;;
28774;SDS011;15926;51.348;6.596;2023-02-28T14:05:23;1.27;;;1.17;;
28774;SDS011;15926;51.348;6.596;2023-02-28T14:07:37;2.60;;;1.30;;
28774;SDS011;15926;51.348;6.596;2023-02-28T14:10:05;1.92;;;1.25;;
28774;SDS011;15926;51.348;6.596;2023-02-28T14:15:44;1.85;;;1.10;;
28774;SDS011;15926;51.348;6.596;2023-02-28T14:20:40;1.20;;;1.10;;
28774;SDS011;15926;51.348;6.596;2023-02-28T14:31:07;1.83;;;1.55;;
28774;SDS011;15926;51.348;6.596;2023-02-28T14:33:48;1.52;;;1.20;;
28774;SDS011;15926;51.348;6.596;2023-02-28T14:36:33;2.53;;;1.30;;
28774;SDS011;15926;51.348;6.596;2023-02-28T14:39:04;1.67;;;1.40;;
28774;SDS011;15926;51.348;6.596;2023-02-28T14:41:32;1.73;;;1.30;;
28774;SDS011;15926;51.348;6.596;2023-02-28T14:44:11;1.67;;;1.40;;
28774;SDS011;15926;51.348;6.596;2023-02-28T14:46:39;4.90;;;1.77;;
28774;SDS011;15926;51.348;6.596;2023-02-28T14:49:06;1.85;;;1.40;;
28774;SDS011;15926;51.348;6.596;2023-02-28T14:51:33;2.42;;;1.65;;
28774;SDS011;15926;51.348;6.596;2023-02-28T14:54:00;1.63;;;1.40;;
28774;SDS011;15926;51.348;6.596;2023-02-28T14:56:35;1.70;;;1.60;;
28774;SDS011;15926;51.348;6.596;2023-02-28T14:59:02;2.13;;;1.27;;
28774;SDS011;15926;51.348;6.596;2023-02-28T15:01:28;3.45;;;1.75;;
28774;SDS011;15926;51.348;6.596;2023-02-28T15:03:57;2.80;;;1.70;;
28774;SDS011;15926;51.348;6.596;2023-02-28T15:06:24;3.47;;;1.65;;
28774;SDS011;15926;51.348;6.596;2023-02-28T15:09:07;1.73;;;1.63;;
28774;SDS011;15926;51.348;6.596;2023-02-28T15:11:33;2.13;;;1.70;;
28774;SDS011;15926;51.348;6.596;2023-02-28T15:14:00;3.60;;;1.83;;
28774;SDS011;15926;51.348;6.596;2023-02-28T15:16:29;3.22;;;1.95;;
28774;SDS011;15926;51.348;6.596;2023-02-28T15:21:36;3.75;;;2.30;;
28774;SDS011;15926;51.348;6.596;2023-02-28T15:24:07;3.08;;;1.70;;
28774;SDS011;15926;51.348;6.596;2023-02-28T15:26:38;4.55;;;2.15;;
28774;SDS011;15926;51.348;6.596;2023-02-28T15:29:10;1.92;;;1.73;;
28774;SDS011;15926;51.348;6.596;2023-02-28T15:31:46;1.70;;;1.60;;
28774;SDS011;15926;51.348;6.596;2023-02-28T15:34:18;1.73;;;1.40;;
28774;SDS011;15926;51.348;6.596;2023-02-28T15:36:45;4.43;;;1.65;;
28774;SDS011;15926;51.348;6.596;2023-02-28T15:39:25;1.85;;;1.52;;
28774;SDS011;15926;51.348;6.596;2023-02-28T15:42:11;3.58;;;1.60;;
28774;SDS011;15926;51.348;6.596;2023-02-28T15:44:38;1.80;;;1.65;;
28774;SDS011;15926;51.348;6.596;2023-02-28T15:47:06;2.22;;;1.60;;
28774;SDS011;15926;51.348;6.596;2023-02-28T15:49:37;2.10;;;1.83;;
28774;SDS011;15926;51.348;6.596;2023-02-28T15:52:04;3.28;;;2.15;;
28774;SDS011;15926;51.348;6.596;2023-02-28T15:54:32;2.00;;;1.42;;
28774;SDS011;15926;51.348;6.596;2023-02-28T15:57:04;1.90;;;1.63;;
28774;SDS011;15926;51.348;6.596;2023-02-28T15:59:33;4.07;;;1.67;;
28774;SDS011;15926;51.348;6.596;2023-02-28T16:04:28;2.75;;;1.95;;
28774;SDS011;15926;51.348;6.596;2023-02-28T16:11:53;3.63;;;1.98;;
28774;SDS011;15926;51.348;6.596;2023-02-28T16:14:21;2.17;;;1.48;;
28774;SDS011;15926;51.348;6.596;2023-02-28T16:16:55;2.13;;;1.92;;
28774;SDS011;15926;51.348;6.596;2023-02-28T16:19:22;2.17;;;1.77;;
28774;SDS011;15926;51.348;6.596;2023-02-28T16:21:48;5.47;;;1.90;;
28774;SDS011;15926;51.348;6.596;2023-02-28T16:24:14;2.15;;;1.92;;
28774;SDS011;15926;51.348;6.596;2023-02-28T16:26:41;2.47;;;2.03;;
28774;SDS011;15926;51.348;6.596;2023-02-28T16:29:09;2.45;;;1.83;;
28774;SDS011;15926;51.348;6.596;2023-02-28T16:31:38;3.85;;;1.77;;
28774;SDS011;15926;51.348;6.596;2023-02-28T16:34:04;2.15;;;1.90;;
28774;SDS011;15926;51.348;6.596;2023-02-28T16:36:31;2.08;;;1.90;;
28774;SDS011;15926;51.348;6.596;2023-02-28T16:38:57;2.42;;;2.20;;
28774;SDS011;15926;51.348;6.596;2023-02-28T16:41:26;3.78;;;1.92;;
28774;SDS011;15926;51.348;6.596;2023-02-28T16:43:53;3.28;;;2.10;;
28774;SDS011;15926;51.348;6.596;2023-02-28T16:46:27;3.22;;;1.92;;
28774;SDS011;15926;51.348;6.596;2023-02-28T16:48:55;2.65;;;1.80;;
28774;SDS011;15926;51.348;6.596;2023-02-28T16:51:24;3.33;;;2.30;;
28774;SDS011;15926;51.348;6.596;2023-02-28T16:53:51;3.55;;;2.92;;
28774;SDS011;15926;51.348;6.596;2023-02-28T16:56:21;3.78;;;2.53;;
28774;SDS011;15926;51.348;6.596;2023-02-28T16:58:57;3.75;;;2.47;;
28774;SDS011;15926;51.348;6.596;2023-02-28T17:01:25;2.55;;;2.22;;
28774;SDS011;15926;51.348;6.596;2023-02-28T17:03:52;2.53;;;1.70;;
28774;SDS011;15926;51.348;6.596;2023-02-28T17:06:26;2.83;;;2.33;;
28774;SDS011;15926;51.348;6.596;2023-02-28T17:08:55;2.60;;;1.63;;
28774;SDS011;15926;51.348;6.596;2023-02-28T17:11:21;2.00;;;1.88;;
28774;SDS011;15926;51.348;6.596;2023-02-28T17:13:48;4.65;;;1.92;;
28774;SDS011;15926;51.348;6.596;2023-02-28T17:16:26;2.85;;;2.20;;
28774;SDS011;15926;51.348;6.596;2023-02-28T17:18:54;5.47;;;2.65;;
28774;SDS011;15926;51.348;6.596;2023-02-28T17:21:20;3.15;;;2.78;;
28774;SDS011;15926;51.348;6.596;2023-02-28T17:23:46;2.97;;;2.33;;